Time;durP1;ratioP1;P1;durP2;ratioP2;P2;SDS_P1;SDS_P2;PMS_P1;PMS_P2;Temp;Humidity;BMP_temperature;BMP_pressure;BME280_temperature;BME280_humidity;BME280_pressure;Samples;Min_cycle;Max_cycle;Signal;HPM_P1;HPM_P2
2021/11/25 00:01:00;;;;;;;26.03;12.73;;;;;;;;;;4951756;28;20045;-77
2021/11/25 00:03:26;;;;;;;21.40;12.20;;;;;;;;;;4950525;28;20032;-77
2021/11/25 00:05:52;;;;;;;22.73;11.37;;;;;;;;;;4950535;28;20480;-77
2021/11/25 00:08:18;;;;;;;19.13;11.53;;;;;;;;;;4952095;28;20023;-76
2021/11/25 00:10:44;;;;;;;20.40;11.63;;;;;;;;;;4950348;29;20426;-76
2021/11/25 00:13:11;;;;;;;21.73;11.87;;;;;;;;;;4950484;28;20032;-78
2021/11/25 00:15:37;;;;;;;20.10;11.17;;;;;;;;;;4950221;28;20031;-78
2021/11/25 00:18:02;;;;;;;21.97;12.07;;;;;;;;;;4950346;28;20031;-77
2021/11/25 00:20:28;;;;;;;23.90;12.83;;;;;;;;;;4950437;28;20034;-76
2021/11/25 00:22:54;;;;;;;20.63;11.40;;;;;;;;;;4952668;28;20023;-77
2021/11/25 00:25:19;;;;;;;23.53;11.50;;;;;;;;;;4955464;28;20031;-77
2021/11/25 00:27:45;;;;;;;22.00;11.90;;;;;;;;;;4953795;29;20479;-77
2021/11/25 00:30:11;;;;;;;20.80;10.27;;;;;;;;;;4955287;28;20033;-77
2021/11/25 00:32:38;;;;;;;19.67;10.13;;;;;;;;;;4955247;28;20047;-77
2021/11/25 00:35:05;;;;;;;23.47;10.90;;;;;;;;;;4953850;28;20395;-76
2021/11/25 00:37:31;;;;;;;21.83;10.73;;;;;;;;;;4955516;28;20070;-76
2021/11/25 00:39:56;;;;;;;21.53;11.07;;;;;;;;;;4953752;28;20034;-79
2021/11/25 00:42:22;;;;;;;20.73;10.80;;;;;;;;;;4954074;29;20503;-76
2021/11/25 00:44:48;;;;;;;22.20;10.30;;;;;;;;;;4954914;28;20032;-75
2021/11/25 00:47:13;;;;;;;19.63;10.00;;;;;;;;;;4955136;28;20063;-76
2021/11/25 00:49:39;;;;;;;20.43;10.83;;;;;;;;;;4955112;28;20050;-77
2021/11/25 00:52:05;;;;;;;20.63;10.90;;;;;;;;;;4953216;28;20399;-79
2021/11/25 00:54:30;;;;;;;19.50;11.37;;;;;;;;;;4954018;28;20544;-78
2021/11/25 00:56:57;;;;;;;20.47;10.93;;;;;;;;;;4954745;28;20467;-78
2021/11/25 00:59:23;;;;;;;24.27;12.37;;;;;;;;;;4953631;29;20023;-78
2021/11/25 01:01:48;;;;;;;19.07;9.80;;;;;;;;;;4953825;28;20019;-78
2021/11/25 01:04:14;;;;;;;25.73;11.03;;;;;;;;;;4953724;28;20043;-77
2021/11/25 01:06:40;;;;;;;19.97;12.43;;;;;;;;;;4953671;28;20035;-79
2021/11/25 01:09:05;;;;;;;20.77;11.87;;;;;;;;;;4954711;28;20453;-78
2021/11/25 01:11:31;;;;;;;21.07;11.57;;;;;;;;;;4954604;28;20149;-78
2021/11/25 01:13:56;;;;;;;18.97;11.53;;;;;;;;;;4953133;28;20035;-77
2021/11/25 01:16:22;;;;;;;29.23;18.73;;;;;;;;;;4937118;29;20067;-78
2021/11/25 01:18:49;;;;;;;28.03;11.73;;;;;;;;;;4954227;28;20030;-78
2021/11/25 01:21:14;;;;;;;19.03;11.33;;;;;;;;;;4953242;28;20427;-78
2021/11/25 01:23:40;;;;;;;20.37;10.57;;;;;;;;;;4954444;28;20043;-78
2021/11/25 01:26:06;;;;;;;19.50;10.80;;;;;;;;;;4953247;28;20027;-77
2021/11/25 01:28:32;;;;;;;24.60;11.57;;;;;;;;;;4956140;28;20031;-77
2021/11/25 01:31:00;;;;;;;23.30;11.90;;;;;;;;;;4954143;28;20027;-76
2021/11/25 01:33:27;;;;;;;22.23;11.53;;;;;;;;;;4951924;28;20519;-76
2021/11/25 01:35:54;;;;;;;20.90;10.87;;;;;;;;;;4952794;28;20045;-78
2021/11/25 01:38:20;;;;;;;23.57;10.70;;;;;;;;;;4954217;28;20019;-77
2021/11/25 01:40:46;;;;;;;21.53;11.30;;;;;;;;;;4952578;28;20090;-77
2021/11/25 01:43:13;;;;;;;23.13;12.07;;;;;;;;;;4952698;28;20028;-77
2021/11/25 01:45:39;;;;;;;25.17;12.43;;;;;;;;;;4954250;28;20019;-77
2021/11/25 01:48:05;;;;;;;23.20;11.87;;;;;;;;;;4954049;28;20035;-77
2021/11/25 01:50:33;;;;;;;24.70;11.93;;;;;;;;;;4953806;28;20035;-78
2021/11/25 01:52:59;;;;;;;20.40;11.63;;;;;;;;;;4952200;28;20113;-77
2021/11/25 01:55:27;;;;;;;24.00;11.40;;;;;;;;;;4952526;28;20082;-75
2021/11/25 01:57:53;;;;;;;25.43;12.43;;;;;;;;;;4952077;29;20027;-77
2021/11/25 02:00:26;;;;;;;21.57;11.27;;;;;;;;;;4952617;28;20387;-76
2021/11/25 02:02:53;;;;;;;20.83;11.10;;;;;;;;;;4953626;28;20043;-76
2021/11/25 02:05:18;;;;;;;24.30;12.17;;;;;;;;;;4952332;29;20463;-76
2021/11/25 02:07:45;;;;;;;25.40;12.87;;;;;;;;;;4953677;28;20027;-76
2021/11/25 02:10:12;;;;;;;23.37;12.63;;;;;;;;;;4953677;28;20498;-77
2021/11/25 02:12:39;;;;;;;23.07;12.30;;;;;;;;;;4952408;28;20027;-77
2021/11/25 02:15:06;;;;;;;23.43;11.80;;;;;;;;;;4951965;28;20015;-77
2021/11/25 02:17:32;;;;;;;22.03;11.77;;;;;;;;;;4952227;29;20039;-78
2021/11/25 02:19:59;;;;;;;21.33;12.50;;;;;;;;;;4951726;28;20031;-77
2021/11/25 02:22:24;;;;;;;25.03;13.50;;;;;;;;;;4953347;28;20033;-77
2021/11/25 02:24:50;;;;;;;26.40;12.93;;;;;;;;;;4953091;28;20415;-77
2021/11/25 02:27:20;;;;;;;23.43;12.07;;;;;;;;;;4952016;29;20030;-76
2021/11/25 02:29:46;;;;;;;23.80;11.67;;;;;;;;;;4953296;28;20023;-76
2021/11/25 02:32:12;;;;;;;20.57;11.57;;;;;;;;;;4951662;28;20459;-78
2021/11/25 02:34:38;;;;;;;20.97;11.60;;;;;;;;;;4953140;28;20461;-76
2021/11/25 02:37:03;;;;;;;27.37;12.87;;;;;;;;;;4952828;28;20484;-76
2021/11/25 02:39:29;;;;;;;23.63;12.83;;;;;;;;;;4951923;28;20030;-77
2021/11/25 02:41:54;;;;;;;21.77;11.50;;;;;;;;;;4951643;28;20031;-77
2021/11/25 02:44:20;;;;;;;22.30;11.83;;;;;;;;;;4952679;28;20114;-76
2021/11/25 02:46:52;;;;;;;22.27;12.43;;;;;;;;;;4951593;28;20035;-77
2021/11/25 02:49:17;;;;;;;26.85;12.93;;;;;;;;;;4952911;28;20027;-77
2021/11/25 02:51:43;;;;;;;23.43;11.83;;;;;;;;;;4952743;28;20527;-77
2021/11/25 02:54:09;;;;;;;23.07;13.30;;;;;;;;;;4952890;28;20019;-77
2021/11/25 02:56:34;;;;;;;24.53;13.03;;;;;;;;;;4952790;28;20027;-77
2021/11/25 02:59:00;;;;;;;30.90;13.17;;;;;;;;;;4952889;28;20349;-77
2021/11/25 03:01:44;;;;;;;23.10;11.20;;;;;;;;;;4951191;28;20106;-77
2021/11/25 03:04:09;;;;;;;23.43;12.37;;;;;;;;;;4950949;28;20450;-78
2021/11/25 03:06:36;;;;;;;26.20;12.77;;;;;;;;;;4951120;28;20114;-76
2021/11/25 03:09:03;;;;;;;27.30;12.30;;;;;;;;;;4951133;28;20063;-78
2021/11/25 03:11:30;;;;;;;23.00;12.90;;;;;;;;;;4951228;28;20555;-79
2021/11/25 03:13:58;;;;;;;27.33;13.87;;;;;;;;;;4951106;29;20030;-77
2021/11/25 03:16:25;;;;;;;25.60;12.77;;;;;;;;;;4952383;28;20031;-77
2021/11/25 03:18:52;;;;;;;25.60;12.90;;;;;;;;;;4950919;28;20031;-75
2021/11/25 03:21:19;;;;;;;24.50;11.87;;;;;;;;;;4952114;29;20464;-76
2021/11/25 03:23:47;;;;;;;24.33;13.03;;;;;;;;;;4950922;28;20054;-76
2021/11/25 03:26:16;;;;;;;24.53;13.43;;;;;;;;;;4951892;29;20037;-77
2021/11/25 03:28:43;;;;;;;29.03;13.97;;;;;;;;;;4951010;29;20027;-77
2021/11/25 03:31:15;;;;;;;25.90;13.50;;;;;;;;;;4950444;28;20489;-77
2021/11/25 03:33:41;;;;;;;26.73;13.85;;;;;;;;;;4952076;28;20047;-78
2021/11/25 03:36:08;;;;;;;28.30;14.70;;;;;;;;;;4952160;28;20443;-77
2021/11/25 03:38:33;;;;;;;25.00;13.47;;;;;;;;;;4952140;28;20035;-77
2021/11/25 03:41:00;;;;;;;30.90;14.03;;;;;;;;;;4950763;29;20019;-78
2021/11/25 03:43:26;;;;;;;26.00;13.13;;;;;;;;;;4952031;28;20110;-77
2021/11/25 03:45:52;;;;;;;32.00;14.27;;;;;;;;;;4952043;28;20030;-73
2021/11/25 03:48:18;;;;;;;25.47;13.83;;;;;;;;;;4950645;28;20182;-77
2021/11/25 03:50:43;;;;;;;28.07;14.57;;;;;;;;;;4950461;29;20055;-76
2021/11/25 03:53:09;;;;;;;25.90;13.97;;;;;;;;;;4950729;29;20031;-76
2021/11/25 03:55:38;;;;;;;26.70;13.97;;;;;;;;;;4951853;28;20027;-76
2021/11/25 03:58:04;;;;;;;27.93;13.53;;;;;;;;;;4950122;28;20023;-76
2021/11/25 04:00:31;;;;;;;29.07;14.20;;;;;;;;;;4950620;28;20038;-76
2021/11/25 04:02:58;;;;;;;35.37;18.50;;;;;;;;;;4934646;29;20484;-76
2021/11/25 04:05:24;;;;;;;29.47;14.77;;;;;;;;;;4950943;29;20023;-78
2021/11/25 04:07:49;;;;;;;29.33;15.83;;;;;;;;;;4953900;28;20034;-75
2021/11/25 04:10:16;;;;;;;32.97;14.67;;;;;;;;;;4951500;28;20444;-77
2021/11/25 04:12:41;;;;;;;29.30;14.60;;;;;;;;;;4953408;28;20196;-76
2021/11/25 04:15:08;;;;;;;33.23;15.90;;;;;;;;;;4953803;28;20054;-77
2021/11/25 04:17:34;;;;;;;27.07;14.83;;;;;;;;;;4952337;28;20050;-77
2021/11/25 04:20:00;;;;;;;31.57;15.10;;;;;;;;;;4950299;28;20042;-77
2021/11/25 04:22:27;;;;;;;29.97;14.43;;;;;;;;;;4950410;28;20392;-75
2021/11/25 04:24:55;;;;;;;30.47;14.53;;;;;;;;;;4950224;28;20050;-73
2021/11/25 04:27:21;;;;;;;28.10;14.30;;;;;;;;;;4949964;28;20034;-76
2021/11/25 04:29:55;;;;;;;31.27;15.17;;;;;;;;;;4951731;28;20035;-77
2021/11/25 04:37:49;;;;;;;28.47;14.20;;;;;;;;;;4951690;29;20057;-76
2021/11/25 04:40:15;;;;;;;27.90;15.77;;;;;;;;;;4950076;28;20515;-77
2021/11/25 04:42:40;;;;;;;30.43;15.30;;;;;;;;;;4950131;28;20035;-77
2021/11/25 04:45:07;;;;;;;26.63;14.63;;;;;;;;;;4949874;28;20070;-76
2021/11/25 04:47:33;;;;;;;27.17;14.57;;;;;;;;;;4951382;28;20102;-78
2021/11/25 04:49:58;;;;;;;31.50;15.43;;;;;;;;;;4949813;28;20476;-78
2021/11/25 04:52:24;;;;;;;36.17;16.33;;;;;;;;;;4950190;28;20038;-75
2021/11/25 04:54:49;;;;;;;32.07;16.93;;;;;;;;;;4950176;28;20066;-75
2021/11/25 04:57:15;;;;;;;34.97;16.70;;;;;;;;;;4949927;28;20123;-77
2021/11/25 04:59:40;;;;;;;33.97;16.50;;;;;;;;;;4950395;28;20110;-75
2021/11/25 05:02:06;;;;;;;35.47;17.50;;;;;;;;;;4950003;28;20055;-75
2021/11/25 05:04:32;;;;;;;31.97;16.10;;;;;;;;;;4951472;28;20452;-78
2021/11/25 05:06:57;;;;;;;29.17;15.23;;;;;;;;;;4951160;28;20034;-77
2021/11/25 05:09:23;;;;;;;29.00;15.27;;;;;;;;;;4951769;28;20479;-77
2021/11/25 05:11:49;;;;;;;37.83;16.83;;;;;;;;;;4953389;28;20035;-76
2021/11/25 05:14:14;;;;;;;35.97;16.80;;;;;;;;;;4955092;28;20029;-77
2021/11/25 05:16:40;;;;;;;32.13;16.77;;;;;;;;;;4953608;28;20027;-77
2021/11/25 05:19:06;;;;;;;37.63;18.63;;;;;;;;;;4953414;28;20468;-77
2021/11/25 05:21:31;;;;;;;32.53;16.80;;;;;;;;;;4954759;28;20050;-78
2021/11/25 05:23:57;;;;;;;31.53;15.93;;;;;;;;;;4953075;29;20023;-75
2021/11/25 05:26:22;;;;;;;41.63;20.13;;;;;;;;;;4954798;28;20027;-78
2021/11/25 05:28:48;;;;;;;35.00;18.13;;;;;;;;;;4954961;28;20023;-75
2021/11/25 05:31:14;;;;;;;32.50;16.30;;;;;;;;;;4952930;28;20399;-78
2021/11/25 05:33:40;;;;;;;33.90;16.47;;;;;;;;;;4953147;28;20051;-76
2021/11/25 05:36:05;;;;;;;39.63;17.63;;;;;;;;;;4954717;28;20049;-75
2021/11/25 05:38:31;;;;;;;38.23;18.33;;;;;;;;;;4954192;28;20067;-77
2021/11/25 05:40:56;;;;;;;29.90;15.93;;;;;;;;;;4954279;28;20035;-77
2021/11/25 05:43:22;;;;;;;34.87;16.37;;;;;;;;;;4952745;28;20030;-74
2021/11/25 05:45:48;;;;;;;37.13;16.90;;;;;;;;;;4954048;28;20027;-77
2021/11/25 05:48:13;;;;;;;33.57;16.73;;;;;;;;;;4936855;29;20498;-76
2021/11/25 05:50:39;;;;;;;38.03;18.63;;;;;;;;;;4953106;29;20035;-78
2021/11/25 05:53:04;;;;;;;38.33;17.67;;;;;;;;;;4952750;29;20031;-78
2021/11/25 05:55:30;;;;;;;35.10;16.43;;;;;;;;;;4952710;28;20039;-78
2021/11/25 05:57:59;;;;;;;31.50;17.00;;;;;;;;;;4953726;28;20439;-77
2021/11/25 06:00:25;;;;;;;37.70;17.00;;;;;;;;;;4952337;28;20030;-77
2021/11/25 06:02:50;;;;;;;32.93;16.53;;;;;;;;;;4952328;28;20027;-77
2021/11/25 06:05:19;;;;;;;38.07;18.27;;;;;;;;;;4951798;28;20039;-78
2021/11/25 06:07:46;;;;;;;38.80;18.57;;;;;;;;;;4953570;28;20481;-76
2021/11/25 06:10:14;;;;;;;37.60;17.23;;;;;;;;;;4951918;28;20432;-76
2021/11/25 06:12:39;;;;;;;35.43;17.97;;;;;;;;;;4953875;28;20419;-77
2021/11/25 06:15:06;;;;;;;41.30;19.40;;;;;;;;;;4952058;28;20039;-75
2021/11/25 06:17:32;;;;;;;38.73;17.90;;;;;;;;;;4952385;28;20054;-75
2021/11/25 06:19:57;;;;;;;35.73;18.27;;;;;;;;;;4952067;28;20065;-77
2021/11/25 06:22:23;;;;;;;39.57;18.07;;;;;;;;;;4952163;29;20084;-76
2021/11/25 06:24:50;;;;;;;35.27;18.33;;;;;;;;;;4951663;29;20023;-76
2021/11/25 06:27:16;;;;;;;39.50;17.83;;;;;;;;;;4952996;28;20082;-77
2021/11/25 06:29:42;;;;;;;43.33;19.53;;;;;;;;;;4951840;28;20486;-78
2021/11/25 06:32:08;;;;;;;37.00;17.73;;;;;;;;;;4935645;29;20467;-77
2021/11/25 06:34:36;;;;;;;37.70;17.60;;;;;;;;;;4951365;28;20436;-79
2021/11/25 06:37:02;;;;;;;40.40;19.03;;;;;;;;;;4951265;28;20108;-76
2021/11/25 06:39:27;;;;;;;37.73;18.33;;;;;;;;;;4951245;28;20032;-77
2021/11/25 06:41:54;;;;;;;38.13;18.43;;;;;;;;;;4951960;28;20031;-76
2021/11/25 06:44:19;;;;;;;36.20;17.70;;;;;;;;;;4953374;28;20027;-78
2021/11/25 06:46:45;;;;;;;40.63;17.77;;;;;;;;;;4952867;28;20484;-75
2021/11/25 06:49:11;;;;;;;39.13;19.17;;;;;;;;;;4951297;28;20176;-76
2021/11/25 06:51:39;;;;;;;40.93;18.70;;;;;;;;;;4953107;28;20023;-76
2021/11/25 06:54:05;;;;;;;37.00;18.23;;;;;;;;;;4952806;28;20023;-77
2021/11/25 06:56:30;;;;;;;36.13;17.97;;;;;;;;;;4952428;28;20037;-77
2021/11/25 06:58:56;;;;;;;40.57;18.57;;;;;;;;;;4952515;28;20090;-76
2021/11/25 07:01:23;;;;;;;42.93;18.37;;;;;;;;;;4951978;28;20035;-75
2021/11/25 07:03:49;;;;;;;36.50;17.13;;;;;;;;;;4950981;28;20027;-76
2021/11/25 07:06:15;;;;;;;36.70;17.73;;;;;;;;;;4952597;28;20392;-77
2021/11/25 07:08:40;;;;;;;39.57;20.23;;;;;;;;;;4950624;28;20066;-78
2021/11/25 07:11:06;;;;;;;35.97;16.97;;;;;;;;;;4952057;28;20355;-78
2021/11/25 07:13:32;;;;;;;37.77;18.03;;;;;;;;;;4950775;29;20023;-79
2021/11/25 07:15:58;;;;;;;43.63;18.23;;;;;;;;;;4952239;28;20507;-78
2021/11/25 07:18:24;;;;;;;36.63;18.27;;;;;;;;;;4951864;28;20028;-77
2021/11/25 07:20:50;;;;;;;42.33;18.07;;;;;;;;;;4950619;28;20387;-75
2021/11/25 07:23:16;;;;;;;38.97;18.67;;;;;;;;;;4945543;28;20027;-75
2021/11/25 07:25:42;;;;;;;57.37;28.33;;;;;;;;;;4933960;29;20118;-78
2021/11/25 07:28:07;;;;;;;40.80;18.10;;;;;;;;;;4945334;29;20194;-77
2021/11/25 07:30:34;;;;;;;38.13;17.33;;;;;;;;;;4941463;28;20039;-77
2021/11/25 07:33:00;;;;;;;42.40;18.63;;;;;;;;;;4948643;28;20102;-77
2021/11/25 07:35:26;;;;;;;46.73;19.13;;;;;;;;;;4943329;28;20513;-76
2021/11/25 07:37:53;;;;;;;40.30;19.43;;;;;;;;;;4939686;28;20499;-74
2021/11/25 07:40:21;;;;;;;42.37;18.90;;;;;;;;;;4941355;28;20039;-77
2021/11/25 07:42:48;;;;;;;45.03;19.63;;;;;;;;;;4941984;28;20031;-76
2021/11/25 07:45:14;;;;;;;34.23;17.07;;;;;;;;;;4943067;28;20038;-77
2021/11/25 07:47:39;;;;;;;40.40;17.73;;;;;;;;;;4943825;28;20039;-76
2021/11/25 07:50:10;;;;;;;38.87;18.17;;;;;;;;;;4942387;28;20027;-76
2021/11/25 07:52:37;;;;;;;41.97;18.77;;;;;;;;;;4943181;29;20055;-74
2021/11/25 07:55:04;;;;;;;44.60;19.03;;;;;;;;;;4933271;28;20019;-76
2021/11/25 07:57:30;;;;;;;36.70;19.03;;;;;;;;;;4939167;29;20024;-76
2021/11/25 07:59:55;;;;;;;39.37;19.07;;;;;;;;;;4934985;29;20484;-75
2021/11/25 08:02:21;;;;;;;40.77;19.37;;;;;;;;;;4944507;28;20152;-76
2021/11/25 08:04:50;;;;;;;42.93;19.03;;;;;;;;;;4942694;28;20039;-76
2021/11/25 08:07:16;;;;;;;41.50;19.73;;;;;;;;;;4949017;28;20559;-77
2021/11/25 08:09:43;;;;;;;40.27;17.83;;;;;;;;;;4939577;28;20027;-78
2021/11/25 08:12:09;;;;;;;38.87;18.83;;;;;;;;;;4942538;28;20165;-77
2021/11/25 08:14:35;;;;;;;36.93;17.47;;;;;;;;;;4935174;28;20551;-76
2021/11/25 08:17:01;;;;;;;37.93;17.63;;;;;;;;;;4934412;29;20598;-75
2021/11/25 08:19:27;;;;;;;38.93;18.20;;;;;;;;;;4937138;29;20035;-74
2021/11/25 08:21:54;;;;;;;42.97;19.27;;;;;;;;;;4940380;28;20035;-73
2021/11/25 08:24:19;;;;;;;46.33;19.00;;;;;;;;;;4939800;29;20038;-76
2021/11/25 08:26:45;;;;;;;43.10;18.30;;;;;;;;;;4939148;28;20039;-77
2021/11/25 08:29:11;;;;;;;40.87;19.00;;;;;;;;;;4939222;28;20023;-74
2021/11/25 08:31:36;;;;;;;43.17;19.83;;;;;;;;;;4939997;29;20027;-77
2021/11/25 08:34:02;;;;;;;39.33;17.93;;;;;;;;;;4941850;28;20521;-77
2021/11/25 08:36:28;;;;;;;48.13;19.60;;;;;;;;;;4941361;28;20024;-74
2021/11/25 08:38:53;;;;;;;40.40;19.03;;;;;;;;;;4940471;29;20039;-76
2021/11/25 08:41:19;;;;;;;37.57;18.80;;;;;;;;;;4939911;29;20035;-74
2021/11/25 08:43:45;;;;;;;41.67;18.97;;;;;;;;;;4942641;28;20181;-73
2021/11/25 08:46:10;;;;;;;38.87;16.37;;;;;;;;;;4943372;28;20055;-74
2021/11/25 08:48:38;;;;;;;39.83;17.40;;;;;;;;;;4942327;28;20031;-73
2021/11/25 08:51:04;;;;;;;37.60;16.93;;;;;;;;;;4942909;28;20035;-73
2021/11/25 08:53:32;;;;;;;39.73;18.70;;;;;;;;;;4945130;28;20380;-74
2021/11/25 08:55:59;;;;;;;39.33;18.90;;;;;;;;;;4958643;28;20038;-73
2021/11/25 08:58:25;;;;;;;38.63;18.83;;;;;;;;;;4941161;29;20035;-73
2021/11/25 09:00:50;;;;;;;39.03;17.47;;;;;;;;;;4944557;28;20035;-74
2021/11/25 09:03:16;;;;;;;41.57;19.67;;;;;;;;;;4944661;29;20031;-74
2021/11/25 09:05:42;;;;;;;43.47;19.27;;;;;;;;;;4944977;28;20065;-73
2021/11/25 09:08:09;;;;;;;42.53;19.20;;;;;;;;;;4939769;29;20387;-74
2021/11/25 09:10:36;;;;;;;41.67;19.07;;;;;;;;;;4946940;29;20039;-74
2021/11/25 09:13:03;;;;;;;41.27;19.80;;;;;;;;;;4940259;28;20098;-73
2021/11/25 09:15:29;;;;;;;44.47;20.90;;;;;;;;;;4943922;28;20653;-74
2021/11/25 09:17:55;;;;;;;39.50;18.47;;;;;;;;;;4941701;29;20075;-74
2021/11/25 09:20:21;;;;;;;38.73;18.97;;;;;;;;;;4944953;29;20046;-73
2021/11/25 09:22:48;;;;;;;40.07;19.63;;;;;;;;;;4941834;29;20027;-75
2021/11/25 09:25:15;;;;;;;46.07;25.53;;;;;;;;;;4944110;28;20027;-72
2021/11/25 09:27:45;;;;;;;37.03;17.93;;;;;;;;;;4946992;28;20035;-73
2021/11/25 09:30:11;;;;;;;42.20;18.60;;;;;;;;;;4942291;28;20043;-74
2021/11/25 09:32:36;;;;;;;45.17;19.30;;;;;;;;;;4942793;29;20050;-73
2021/11/25 09:35:02;;;;;;;42.57;17.27;;;;;;;;;;4942313;28;20337;-73
2021/11/25 09:37:29;;;;;;;38.23;19.07;;;;;;;;;;4942848;28;20092;-73
2021/11/25 09:39:55;;;;;;;42.37;19.23;;;;;;;;;;4943047;28;20042;-73
2021/11/25 09:42:21;;;;;;;37.57;18.73;;;;;;;;;;4946130;28;20035;-73
2021/11/25 09:44:46;;;;;;;42.23;19.00;;;;;;;;;;4945764;28;20088;-74
2021/11/25 09:47:15;;;;;;;45.07;19.23;;;;;;;;;;4944543;28;20090;-72
2021/11/25 09:49:42;;;;;;;43.17;19.27;;;;;;;;;;4937623;28;20085;-75
2021/11/25 09:52:08;;;;;;;39.20;18.43;;;;;;;;;;4943435;28;20035;-74
2021/11/25 09:54:34;;;;;;;41.20;19.77;;;;;;;;;;4945115;28;20069;-73
2021/11/25 09:56:59;;;;;;;41.73;19.40;;;;;;;;;;4943898;28;20031;-74
2021/11/25 09:59:25;;;;;;;45.90;19.90;;;;;;;;;;4937717;28;20118;-74
2021/11/25 10:01:51;;;;;;;46.07;20.53;;;;;;;;;;4943288;28;20783;-74
2021/11/25 10:04:16;;;;;;;50.10;22.57;;;;;;;;;;4942749;28;20042;-74
2021/11/25 10:06:52;;;;;;;38.30;18.87;;;;;;;;;;4942504;28;20034;-73
2021/11/25 10:09:38;;;;;;;39.20;18.37;;;;;;;;;;4957384;28;20048;-74
2021/11/25 10:12:36;;;;;;;41.83;19.73;;;;;;;;;;4942650;28;20030;-74
2021/11/25 10:15:38;;;;;;;45.93;19.13;;;;;;;;;;4945496;28;20035;-74
2021/11/25 10:18:13;;;;;;;42.83;18.90;;;;;;;;;;4940083;28;20731;-74
2021/11/25 10:20:45;;;;;;;41.10;18.77;;;;;;;;;;4938044;28;20047;-74
2021/11/25 10:23:16;;;;;;;;;;;;;;;;;;4941646;28;20034;-73
2021/11/25 10:25:58;;;;;;;44.03;18.90;;;;;;;;;;4943228;28;19918;-75
2021/11/25 10:28:33;;;;;;;43.13;18.88;;;;;;;;;;4941459;28;20046;-73
2021/11/25 10:31:06;;;;;;;43.33;20.40;;;;;;;;;;4940581;28;20050;-72
2021/11/25 10:33:53;;;;;;;42.73;19.30;;;;;;;;;;4945392;28;20091;-73
2021/11/25 10:41:21;;;;;;;43.73;18.90;;;;;;;;;;4940709;28;20031;-73
2021/11/25 10:44:03;;;;;;;42.30;20.00;;;;;;;;;;4944313;28;20035;-73
2021/11/25 10:46:51;;;;;;;43.47;18.50;;;;;;;;;;4951096;28;20110;-75
2021/11/25 10:49:17;;;;;;;44.17;20.13;;;;;;;;;;4945717;29;20039;-72
2021/11/25 10:51:45;;;;;;;46.90;20.77;;;;;;;;;;4944860;28;20077;-73
2021/11/25 10:54:17;;;;;;;42.60;19.47;;;;;;;;;;4945460;28;20484;-73
2021/11/25 10:56:49;;;;;;;;;;;;;;;;;;4945843;28;20887;-73
2021/11/25 10:59:21;;;;;;;;;;;;;;;;;;4936035;28;19922;-75
2021/11/25 11:01:49;;;;;;;40.67;17.85;;;;;;;;;;4939525;28;19922;-74
2021/11/25 11:04:17;;;;;;;62.57;25.87;;;;;;;;;;4940022;28;20038;-74
2021/11/25 11:06:43;;;;;;;42.67;19.30;;;;;;;;;;4941036;28;20038;-73
2021/11/25 11:09:39;;;;;;;39.90;17.87;;;;;;;;;;4937902;28;20038;-73
2021/11/25 11:12:20;;;;;;;35.93;17.93;;;;;;;;;;4954392;28;20047;-75
2021/11/25 11:14:53;;;;;;;38.17;17.00;;;;;;;;;;4941671;28;20094;-74
2021/11/25 11:17:29;;;;;;;43.93;19.30;;;;;;;;;;4943245;28;20555;-74
2021/11/25 11:20:24;;;;;;;40.03;18.73;;;;;;;;;;4937971;28;20554;-74
2021/11/25 11:22:54;;;;;;;40.53;17.80;;;;;;;;;;4955299;28;20390;-74
2021/11/25 11:25:21;;;;;;;43.63;19.50;;;;;;;;;;4940685;28;20035;-74
2021/11/25 11:27:52;;;;;;;42.43;19.63;;;;;;;;;;4936469;28;20043;-74
2021/11/25 11:30:18;;;;;;;39.67;19.30;;;;;;;;;;4938917;28;20027;-74
2021/11/25 11:32:45;;;;;;;75.60;32.13;;;;;;;;;;4935921;28;20294;-75
2021/11/25 11:35:13;;;;;;;43.40;19.80;;;;;;;;;;4939268;28;20086;-73
2021/11/25 11:37:41;;;;;;;36.63;18.50;;;;;;;;;;4942021;28;20053;-73
2021/11/25 11:40:08;;;;;;;50.27;21.83;;;;;;;;;;4939757;28;20031;-74
2021/11/25 11:42:36;;;;;;;43.07;19.73;;;;;;;;;;4935926;28;20074;-76
2021/11/25 11:45:03;;;;;;;37.30;18.53;;;;;;;;;;4939940;28;20054;-75
2021/11/25 11:47:29;;;;;;;45.07;19.20;;;;;;;;;;4943341;28;20098;-73
2021/11/25 11:50:06;;;;;;;43.63;19.93;;;;;;;;;;4936657;28;20031;-74
2021/11/25 11:52:32;;;;;;;40.67;19.87;;;;;;;;;;4928134;28;20040;-73
2021/11/25 11:54:59;;;;;;;45.20;21.27;;;;;;;;;;4937627;28;20274;-75
2021/11/25 11:57:31;;;;;;;41.67;19.27;;;;;;;;;;4943840;28;20039;-73
2021/11/25 12:00:01;;;;;;;39.90;18.83;;;;;;;;;;4934600;28;20390;-72
2021/11/25 12:02:45;;;;;;;39.90;17.97;;;;;;;;;;4922532;29;20130;-73
2021/11/25 12:05:48;;;;;;;43.57;19.50;;;;;;;;;;4940231;28;20795;-73
2021/11/25 12:08:16;;;;;;;49.83;19.67;;;;;;;;;;4939709;28;20114;-74
2021/11/25 12:11:00;;;;;;;43.00;20.47;;;;;;;;;;4945719;28;20035;-74
2021/11/25 12:13:53;;;;;;;35.77;18.27;;;;;;;;;;4937433;28;20566;-74
2021/11/25 12:16:19;;;;;;;;;;;;;;;;;;4940940;28;20039;-73
2021/11/25 12:18:58;;;;;;;45.87;19.40;;;;;;;;;;4942944;28;20294;-73
2021/11/25 12:21:59;;;;;;;38.10;16.63;;;;;;;;;;4944436;28;20360;-74
2021/11/25 12:24:29;;;;;;;41.57;17.70;;;;;;;;;;4946937;28;20183;-74
2021/11/25 12:27:14;;;;;;;40.03;18.03;;;;;;;;;;4943543;28;20049;-73
2021/11/25 12:30:08;;;;;;;42.33;19.07;;;;;;;;;;4944565;28;20570;-73
2021/11/25 12:32:51;;;;;;;41.63;19.03;;;;;;;;;;4943021;28;20084;-73
2021/11/25 12:35:26;;;;;;;42.07;18.20;;;;;;;;;;4943069;28;20031;-74
2021/11/25 12:37:58;;;;;;;39.63;18.83;;;;;;;;;;4944739;28;20479;-74
2021/11/25 12:40:24;;;;;;;49.07;18.03;;;;;;;;;;4938409;28;20031;-73
2021/11/25 12:43:04;;;;;;;46.30;19.13;;;;;;;;;;4956799;28;20373;-73
2021/11/25 12:45:34;;;;;;;48.07;19.97;;;;;;;;;;4941187;28;20035;-73
2021/11/25 12:48:09;;;;;;;45.20;19.13;;;;;;;;;;4944101;28;20278;-75
2021/11/25 12:50:37;;;;;;;43.40;20.20;;;;;;;;;;4936503;28;20042;-74
2021/11/25 12:53:30;;;;;;;42.93;20.63;;;;;;;;;;4940280;28;20043;-73
2021/11/25 12:56:29;;;;;;;;;;;;;;;;;;4947132;28;20030;-73
2021/11/25 12:59:12;;;;;;;45.33;20.77;;;;;;;;;;4964721;28;20490;-74
2021/11/25 13:01:41;;;;;;;42.37;19.13;;;;;;;;;;4944761;28;20475;-75
2021/11/25 13:04:16;;;;;;;43.13;18.57;;;;;;;;;;4941182;28;20035;-74
2021/11/25 13:06:48;;;;;;;41.33;19.27;;;;;;;;;;4944616;28;20060;-73
2021/11/25 13:09:36;;;;;;;47.27;19.47;;;;;;;;;;4940235;28;20510;-75
2021/11/25 13:12:04;;;;;;;52.93;21.27;;;;;;;;;;4941929;28;20142;-74
2021/11/25 13:14:32;;;;;;;38.40;19.67;;;;;;;;;;4945289;28;20484;-74
2021/11/25 13:17:02;;;;;;;39.43;18.97;;;;;;;;;;4945140;28;20031;-73
2021/11/25 13:19:31;;;;;;;44.10;21.50;;;;;;;;;;4940735;28;20123;-74
2021/11/25 13:22:04;;;;;;;46.90;20.20;;;;;;;;;;4944929;28;20501;-74
2021/11/25 13:24:36;;;;;;;40.23;18.10;;;;;;;;;;4946402;28;20472;-74
2021/11/25 13:27:08;;;;;;;49.17;21.95;;;;;;;;;;4947057;28;20027;-74
2021/11/25 13:29:56;;;;;;;44.17;18.02;;;;;;;;;;4937108;28;20039;-73
2021/11/25 13:32:25;;;;;;;46.53;20.00;;;;;;;;;;4943028;28;20047;-74
2021/11/25 13:37:44;;;;;;;39.73;19.17;;;;;;;;;;4950612;28;20065;-74
2021/11/25 13:40:15;;;;;;;49.80;19.63;;;;;;;;;;4941476;28;20043;-73
2021/11/25 13:42:46;;;;;;;42.93;18.97;;;;;;;;;;4943934;28;20038;-72
2021/11/25 13:45:23;;;;;;;43.92;19.38;;;;;;;;;;4943349;28;20040;-74
2021/11/25 13:47:50;;;;;;;46.13;20.17;;;;;;;;;;4944935;28;20054;-73
2021/11/25 13:50:18;;;;;;;81.77;26.50;;;;;;;;;;4935682;28;20479;-73
2021/11/25 13:52:52;;;;;;;42.87;21.23;;;;;;;;;;4942702;28;20035;-74
2021/11/25 13:55:28;;;;;;;74.77;29.83;;;;;;;;;;4943205;28;20023;-75
2021/11/25 13:57:54;;;;;;;60.67;22.13;;;;;;;;;;4947317;28;20050;-76
2021/11/25 14:00:30;;;;;;;68.93;27.20;;;;;;;;;;4942050;28;20019;-74
2021/11/25 14:03:09;;;;;;;43.53;19.90;;;;;;;;;;4943746;28;20055;-76
2021/11/25 14:05:43;;;;;;;42.43;20.40;;;;;;;;;;4943124;28;20039;-76
2021/11/25 14:08:09;;;;;;;43.23;19.30;;;;;;;;;;4947269;28;20058;-75
2021/11/25 14:10:34;;;;;;;50.60;20.97;;;;;;;;;;4942016;28;20472;-75
2021/11/25 14:13:04;;;;;;;42.63;18.23;;;;;;;;;;4943961;28;20027;-75
2021/11/25 14:15:32;;;;;;;51.43;21.30;;;;;;;;;;4945626;28;20023;-74
2021/11/25 14:18:00;;;;;;;43.07;18.97;;;;;;;;;;4950801;28;20022;-74
2021/11/25 14:20:28;;;;;;;43.30;19.37;;;;;;;;;;4946878;28;20034;-74
2021/11/25 14:22:56;;;;;;;38.73;18.23;;;;;;;;;;4948773;28;20023;-74
2021/11/25 14:25:32;;;;;;;39.73;19.33;;;;;;;;;;4946626;28;20475;-74
2021/11/25 14:31:10;;;;;;;47.67;21.50;;;;;;;;;;4944928;28;20050;-75
2021/11/25 14:33:48;;;;;;;43.43;21.13;;;;;;;;;;4943523;28;20051;-74
2021/11/25 14:36:29;;;;;;;45.87;19.73;;;;;;;;;;4943169;28;20042;-74
2021/11/25 14:38:57;;;;;;;45.10;18.97;;;;;;;;;;4941850;28;20058;-75
2021/11/25 14:41:32;;;;;;;47.17;21.50;;;;;;;;;;4941070;28;20049;-74
2021/11/25 14:44:13;;;;;;;44.40;18.73;;;;;;;;;;4947910;28;20094;-75